CheckWX is a tool to help pilots better visualize weather data.  It is not intended as a substitute for an official pre-flight weather briefing.

04:23:43 UTC

5C1 METAR
Boerne Stage Field Airport
San Antonio, Texas, USA
Current

29 mins ago

K5C1 270355Z AUTO 16009G14KT 10SM OVC021 25/22 A3016 RMK AO1
Observed
Jun-27 @ 03:55 UTC
Wind
  • 160° at 9 KTS
  • Gusting to 14 KTS
Visibility
10 SM
Flight Rules
MVFR
Cloud Levels
  • Overcast at 2,100' AGL
Temperature
25°C / 77°F
Dewpoint
22°C / 72°F
Humidity
83%
Altimeter
30.16" Hg
Pressure
1021.32 hPa
Previous

49 mins ago

K5C1 270335Z AUTO 15008KT 10SM BKN021 BKN028 BKN038 25/22 A3015 RMK AO1
Observed
Jun-27 @ 03:35 UTC
Wind
  • 150° at 8 KTS
Visibility
10 SM
Flight Rules
MVFR
Cloud Levels
  • Broken at 2,100' AGL
  • Broken at 2,800' AGL
  • Broken at 3,800' AGL
Temperature
25°C / 77°F
Dewpoint
22°C / 72°F
Humidity
83%
Altimeter
30.15" Hg
Pressure
1021.02 hPa
Previous

1 hour ago

K5C1 270315Z AUTO 15006KT 10SM BKN021 BKN027 OVC035 26/23 A3016 RMK AO1
Observed
Jun-27 @ 03:15 UTC
Wind
  • 150° at 6 KTS
Visibility
10 SM
Flight Rules
MVFR
Cloud Levels
  • Broken at 2,100' AGL
  • Broken at 2,700' AGL
  • Overcast at 3,500' AGL
Temperature
26°C / 79°F
Dewpoint
23°C / 73°F
Humidity
84%
Altimeter
30.16" Hg
Pressure
1021.32 hPa